Tribes Hill, New York
Current Conditions -  °F | °C
As of 12:55 PM on Friday 24 Oct 2014 (Local Time) from KNY0 Reporting Station
Overcast Overcast  
Wind Chill:   Ceiling: 2700
Heat Index:   Visibility: 10mi
Dew Point:   Wind: 5mph
Humidity: 82%   Direction: 290°WNW
Pressure: 29.83"   Gusts: NA
Location:  42.95°N, 74.3°W
Report Text: KNY0 241655Z AUTO 29004KT 10SM OVC027 09/06 A2983 RMK AO2 T00930063
Loading
Personal Weather Stations






























Interactive Weather Map
Tropical Storm Tracking
New forecast layout! Learn more

10-Day Weather Forecast

Advertisements
Track Severe Weather on mobile